Time;durP1;ratioP1;P1;durP2;ratioP2;P2;SDS_P1;SDS_P2;PMS_P1;PMS_P2;Temp;Humidity;BMP_temperature;BMP_pressure;BME280_temperature;BME280_humidity;BME280_pressure;Samples;Min_cycle;Max_cycle;Signal;HPM_P1;HPM_P2
2022/02/03 00:01:13;;;;;;;;;;;;;;;;;;5080806;28;19924;-74
2022/02/03 00:06:11;;;;;;;;;;;;;;;;;;5083922;28;20349;-74
2022/02/03 00:08:58;;;;;;;;;;;;;;;;;;5080151;28;20496;-74
2022/02/03 00:16:14;;;;;;;;;;;;;;;;;;5076993;28;19959;-74
2022/02/03 00:22:01;;;;;;;;;;;;;;;;;;5082738;28;20196;-74
2022/02/03 00:25:33;;;;;;;;;;;;;;;;;;5077802;28;19963;-73
2022/02/03 00:28:08;;;;;;;;;;;;;;;;;;5088696;28;20404;-73
2022/02/03 00:31:32;;;;;;;;;;;;;;;;;;5083616;28;19963;-73
2022/02/03 00:49:04;;;;;;;;;;;;;;;;;;5082113;28;20560;-74
2022/02/03 00:51:31;;;;;;;;;;;;;;;;;;5085162;28;19980;-74
2022/02/03 00:53:58;;;;;;;;;;;;;;;;;;5086195;28;19970;-74
2022/02/03 00:56:26;;;;;;;;;;;;;;;;;;5080404;28;19993;-74
2022/02/03 00:58:52;;;;;;;;;;;;;;;;;;5085116;28;19952;-73
2022/02/03 01:01:18;;;;;;;;;;;;;;;;;;5087082;28;20001;-74
2022/02/03 01:03:44;;;;;;;;;;;;;;;;;;5086434;28;20443;-74
2022/02/03 01:06:10;;;;;;;;;;;;;;;;;;5084168;28;19955;-74
2022/02/03 01:08:36;;;;;;;;;;;;;;;;;;5087528;28;20345;-73
2022/02/03 01:11:12;;;;;;;;;;;;;;;;;;5081088;28;19948;-74
2022/02/03 01:13:47;;;;;;;;;;;;;;;;;;5080648;28;20434;-74
2022/02/03 01:16:40;;;;;;;;;;;;;;;;;;5082435;28;19951;-75
2022/02/03 01:19:31;;;;;;;;;;;;;;;;;;5087588;28;20009;-73
2022/02/03 01:36:56;;;;;;;;;;;;;;;;;;5082381;28;19955;-74
2022/02/03 01:45:51;;;;;;;;;;;;;;;;;;5086002;28;19963;-74
2022/02/03 01:53:34;;;;;;;;;;;;;;;;;;5084529;28;20065;-74
2022/02/03 01:56:02;;;;;;;;;;;;;;;;;;5085633;28;19962;-74
2022/02/03 01:58:28;;;;;;;;;;;;;;;;;;5082937;28;20635;-74
2022/02/03 02:00:54;;;;;;;;;;;;;;;;;;5088292;28;19951;-74
2022/02/03 02:03:21;;;;;;;;;;;;;;;;;;5079072;28;19960;-74
2022/02/03 02:05:47;;;;;;;;;;;;;;;;;;5086140;28;20417;-74
2022/02/03 02:08:13;;;;;;;;;;;;;;;;;;5085171;28;20001;-74
2022/02/03 02:10:56;;;;;;;;;;;;;;;;;;5085474;28;19944;-73
2022/02/03 02:14:04;;;;;;;;;;;;;;;;;;5064026;28;20388;-74
2022/02/03 02:16:50;;;;;;;;;;;;;;;;;;5078186;28;19989;-74
2022/02/03 02:19:12;;;;;;;;;;;;;;;;;;5081866;28;19924;-74
2022/02/03 02:38:14;;;;;;;;;;;;;;;;;;5077186;28;19962;-74
2022/02/03 02:43:06;;;;;;;;;;;;;;;;;;5083210;28;19973;-74
2022/02/03 02:45:32;;;;;;;;;;;;;;;;;;5077797;28;20392;-74
2022/02/03 02:48:01;;;;;;;;;;;;;;;;;;5084531;28;19959;-74
2022/02/03 02:51:05;;;;;;;;;;;;;;;;;;5084418;28;19955;-74
2022/02/03 02:53:30;;;;;;;;;;;;;;;;;;5074563;28;19954;-74
2022/02/03 03:34:07;;;;;;;;;;;;;;;;;;5087487;28;20021;-74
2022/02/03 03:36:36;;;;;;;;;;;;;;;;;;5062819;28;20017;-74
2022/02/03 03:39:02;;;;;;;;;;;;;;;;;;5064272;28;19959;-74
2022/02/03 03:41:29;;;;;;;;;;;;;;;;;;5063800;28;19966;-75
2022/02/03 03:43:55;;;;;;;;;;;;;;;;;;5066598;28;19967;-74
2022/02/03 03:46:21;;;;;;;;;;;;;;;;;;5081839;28;19959;-74
2022/02/03 03:48:47;;;;;;;;;;;;;;;;;;5063517;28;19948;-75
2022/02/03 03:51:13;;;;;;;;;;;;;;;;;;5062359;28;20960;-75
2022/02/03 03:53:48;;;;;;;;;;;;;;;;;;5063876;28;20419;-74
2022/02/03 03:56:25;;;;;;;;;;;;;;;;;;5064172;28;19959;-74
2022/02/03 03:59:27;;;;;;;;;;;;;;;;;;5057154;28;19952;-74
2022/02/03 04:29:05;;;;;;;;;;;;;;;;;;5066516;28;21307;-75
2022/02/03 04:29:58;;;;;;;;;;;;;;;;;;5063095;28;19923;-75
2022/02/03 04:56:59;;;;;;;;;;;;;;;;;;5086599;28;19951;-76
2022/02/03 04:59:25;;;;;;;;;;;;;;;;;;5084645;28;20001;-76
2022/02/03 05:04:30;;;;;;;;;;;;;;;;;;5086699;28;19916;-75
2022/02/03 05:07:17;;;;;;;;;;;;;;;;;;5066491;28;20008;-75
2022/02/03 05:10:05;;;;;;;;;;;;;;;;;;5084333;28;19963;-76
2022/02/03 05:12:38;;;;;;;;;;;;;;;;;;5084242;28;19924;-75
2022/02/03 05:23:45;;;;;;;;;;;;;;;;;;5082994;28;20332;-75
2022/02/03 05:32:20;;;;;;;;;;;;;;;;;;5060523;28;19959;-75
2022/02/03 05:50:32;;;;;;;;;;;;;;;;;;5083111;28;19993;-74
2022/02/03 06:14:20;;;;;;;;;;;;;;;;;;5083234;28;19956;-76
2022/02/03 06:22:11;;;;;;;;;;;;;;;;;;5081715;28;19963;-75
2022/02/03 06:27:24;;;;;;;;;;;;;;;;;;5084611;28;21384;-75
2022/02/03 06:27:39;;;;;;;;;;;;;;;;;;5082766;28;20012;-75
2022/02/03 06:30:05;;;;;;;;;;;;;;;;;;5083624;28;20013;-75
2022/02/03 06:32:31;;;;;;;;;;;;;;;;;;5083021;28;19963;-75
2022/02/03 06:34:57;;;;;;;;;;;;;;;;;;5086090;28;20032;-75
2022/02/03 06:37:26;;;;;;;;;;;;;;;;;;5062898;28;19963;-75
2022/02/03 06:39:52;;;;;;;;;;;;;;;;;;5060906;28;19952;-75
2022/02/03 06:42:18;;;;;;;;;;;;;;;;;;5071102;28;19974;-75
2022/02/03 06:44:50;;;;;;;;;;;;;;;;;;5083862;28;19966;-76
2022/02/03 06:52:33;;;;;;;;;;;;;;;;;;5081314;28;19963;-76
2022/02/03 06:55:07;;;;;;;;;;;;;;;;;;5083687;28;20040;-75
2022/02/03 06:57:46;;;;;;;;;;;;;;;;;;5081486;28;19963;-75
2022/02/03 07:00:23;;;;;;;;;;;;;;;;;;5082361;28;19940;-75
2022/02/03 07:02:53;;;;;;;;;;;;;;;;;;5084879;28;19956;-73
2022/02/03 07:05:20;;;;;;;;;;;;;;;;;;5078391;28;20005;-74
2022/02/03 07:07:47;;;;;;;;;;;;;;;;;;5083287;28;19923;-74
2022/02/03 07:10:13;;;;;;;;;;;;;;;;;;5066265;28;19956;-73
2022/02/03 07:12:39;;;;;;;;;;;;;;;;;;5082691;28;19966;-73
2022/02/03 07:15:06;;;;;;;;;;;;;;;;;;5081882;28;19951;-72
2022/02/03 07:17:34;;;;;;;;;;;;;;;;;;5062555;28;20007;-73
2022/02/03 07:20:02;;;;;;;;;;;;;;;;;;5081704;28;19963;-72
2022/02/03 07:22:29;;;;;;;;;;;;;;;;;;5069871;28;19959;-72
2022/02/03 07:24:55;;;;;;;;;;;;;;;;;;5081231;28;20364;-73
2022/02/03 07:27:21;;;;;;;;;;;;;;;;;;5062772;28;19952;-73
2022/02/03 07:29:47;;;;;;;;;;;;;;;;;;5081406;28;19943;-73
2022/02/03 07:32:13;;;;;;;;;;;;;;;;;;5084902;28;20336;-73
2022/02/03 07:34:40;;;;;;;;;;;;;;;;;;5064407;28;19951;-73
2022/02/03 07:37:06;;;;;;;;;;;;;;;;;;5085395;28;19967;-72
2022/02/03 07:39:33;;;;;;;;;;;;;;;;;;5084890;28;19940;-73
2022/02/03 07:42:00;;;;;;;;;;;;;;;;;;5085456;28;19955;-73
2022/02/03 07:44:26;;;;;;;;;;;;;;;;;;5081714;28;19948;-73
2022/02/03 07:46:52;;;;;;;;;;;;;;;;;;5082171;28;19947;-72
2022/02/03 07:49:18;;;;;;;;;;;;;;;;;;5080515;28;19962;-72
2022/02/03 07:51:44;;;;;;;;;;;;;;;;;;5083277;28;19977;-74
2022/02/03 07:54:10;;;;;;;;;;;;;;;;;;5078773;28;19967;-74
2022/02/03 07:56:37;;;;;;;;;;;;;;;;;;5074459;28;19971;-73
2022/02/03 07:59:03;;;;;;;;;;;;;;;;;;5083418;28;19951;-73
2022/02/03 08:01:29;;;;;;;;;;;;;;;;;;5080075;28;19955;-73
2022/02/03 08:03:57;;;;;;;;;;;;;;;;;;5075101;28;19959;-73
2022/02/03 08:06:28;;;;;;;;;;;;;;;;;;5056797;28;20439;-73
2022/02/03 08:09:05;;;;;;;;;;;;;;;;;;5083138;28;19956;-73
2022/02/03 08:11:36;;;;;;;;;;;;;;;;;;5082214;28;20372;-73
2022/02/03 08:14:15;;;;;;;;;;;;;;;;;;5083415;28;19978;-73
2022/02/03 08:16:48;;;;;;;;;;;;;;;;;;5078967;28;19956;-72
2022/02/03 08:19:24;;;;;;;;;;;;;;;;;;5074735;28;19960;-73
2022/02/03 08:22:17;;;;;;;;;;;;;;;;;;5085096;28;19986;-73
2022/02/03 08:24:48;;;;;;;;;;;;;;;;;;5076346;28;20331;-72
2022/02/03 08:32:28;;;;;;;;;;;;;;;;;;5081884;28;19964;-74
2022/02/03 08:37:21;;;;;;;;;;;;;;;;;;5084414;28;19952;-74
2022/02/03 08:39:57;;;;;;;;;;;;;;;;;;5082539;28;19948;-74
2022/02/03 08:42:23;;;;;;;;;;;;;;;;;;5082752;28;20444;-73
2022/02/03 08:44:49;;;;;;;;;;;;;;;;;;5082978;28;19958;-73
2022/02/03 08:47:15;;;;;;;;;;;;;;;;;;5079874;28;19977;-74
2022/02/03 08:49:46;;;;;;;;;;;;;;;;;;5086554;28;19951;-73
2022/02/03 08:52:17;;;;;;;;;;;;;;;;;;5085177;28;19947;-74
2022/02/03 08:54:52;;;;;;;;;;;;;;;;;;5085456;28;19959;-73
2022/02/03 08:57:31;;;;;;;;;;;;;;;;;;5084664;28;19940;-73
2022/02/03 10:02:26;;;;;;;;;;;;;;;;;;5085866;28;19947;-74
2022/02/03 10:04:55;;;;;;;;;;;;;;;;;;5083816;28;20005;-72
2022/02/03 10:07:24;;;;;;;;;;;;;;;;;;5084339;28;19971;-73
2022/02/03 10:09:50;;;;;;;;;;;;;;;;;;5085663;28;20022;-73
2022/02/03 10:12:16;;;;;;;;;;;;;;;;;;5083892;28;19977;-73
2022/02/03 10:14:42;;;;;;;;;;;;;;;;;;5082186;28;20404;-73
2022/02/03 10:17:09;;;;;;;;;;;;;;;;;;5084593;28;19943;-73
2022/02/03 10:19:40;;;;;;;;;;;;;;;;;;5079693;28;19959;-73
2022/02/03 10:22:06;;;;;;;;;;;;;;;;;;5084241;28;19960;-73
2022/02/03 10:24:33;;;;;;;;;;;;;;;;;;5081629;28;20327;-73
2022/02/03 10:26:59;;;;;;;;;;;;;;;;;;5068344;28;19955;-73
2022/02/03 10:29:28;;;;;;;;;;;;;;;;;;5085812;28;19955;-73
2022/02/03 10:31:54;;;;;;;;;;;;;;;;;;5079918;28;19956;-74
2022/02/03 10:34:25;;;;;;;;;;;;;;;;;;5084056;28;19989;-74
2022/02/03 10:37:00;;;;;;;;;;;;;;;;;;5085205;28;20005;-74
2022/02/03 10:40:01;;;;;;;;;;;;;;;;;;5065872;28;20091;-73
2022/02/03 10:43:00;;;;;;;;;;;;;;;;;;5077865;28;19952;-73
2022/02/03 10:58:27;;;;;;;;;;;;;;;;;;5086531;28;20302;-75
2022/02/03 11:06:09;;;;;;;;;;;;;;;;;;5082976;28;19973;-76
2022/02/03 11:11:24;;;;;;;;;;;;;;;;;;5077909;28;19959;-77
2022/02/03 11:13:51;;;;;;;;;;;;;;;;;;5081060;28;20060;-76
2022/02/03 11:16:17;;;;;;;;;;;;;;;;;;5083010;28;20539;-77
2022/02/03 11:18:43;;;;;;;;;;;;;;;;;;5084320;28;19950;-76
2022/02/03 11:21:09;;;;;;;;;;;;;;;;;;5078869;28;19995;-78
2022/02/03 11:23:43;;;;;;;;;;;;;;;;;;5087538;28;20460;-76
2022/02/03 11:31:25;;;;;;;;;;;;;;;;;;5084748;28;19963;-76
2022/02/03 12:02:21;;;;;;;;;;;;;;;;;;5081241;28;19955;-75
2022/02/03 12:08:02;;;;;;;;;;;;;;;;;;5081841;28;19947;-75
2022/02/03 12:10:36;;;;;;;;;;;;;;;;;;5080463;28;19947;-76
2022/02/03 12:13:22;;;;;;;;;;;;;;;;;;5058444;28;19948;-77
2022/02/03 12:15:58;;;;;;;;;;;;;;;;;;5083049;28;21377;-75
2022/02/03 12:18:44;;;;;;;;;;;;;;;;;;5080041;28;19963;-75
2022/02/03 12:21:16;;;;;;;;;;;;;;;;;;5040870;28;19965;-76
2022/02/03 12:26:17;;;;;;;;;;;;;;;;;;5046552;28;19956;-75
2022/02/03 12:28:51;;;;;;;;;;;;;;;;;;5047025;28;19964;-74
2022/02/03 12:41:36;;;;;;;;;;;;;;;;;;5043985;28;19964;-74
2022/02/03 12:44:05;;;;;;;;;;;;;;;;;;5040608;28;20380;-74
2022/02/03 12:46:31;;;;;;;;;;;;;;;;;;5048276;28;19963;-74
2022/02/03 12:48:57;;;;;;;;;;;;;;;;;;5045781;28;19948;-74
2022/02/03 12:51:24;;;;;;;;;;;;;;;;;;5034280;28;20030;-74
2022/02/03 12:53:50;;;;;;;;;;;;;;;;;;5033337;28;19917;-74
2022/02/03 12:56:16;;;;;;;;;;;;;;;;;;5026970;28;19944;-75
2022/02/03 12:58:45;;;;;;;;;;;;;;;;;;5034839;28;19968;-74
2022/02/03 13:01:21;;;;;;;;;;;;;;;;;;5044741;28;19964;-75
2022/02/03 13:03:50;;;;;;;;;;;;;;;;;;5032356;28;19941;-74
2022/02/03 13:06:18;;;;;;;;;;;;;;;;;;5025852;28;19968;-74
2022/02/03 13:08:46;;;;;;;;;;;;;;;;;;5046927;28;19945;-74
2022/02/03 13:11:23;;;;;;;;;;;;;;;;;;5046351;28;20426;-75
2022/02/03 13:14:02;;;;;;;;;;;;;;;;;;5043912;28;19964;-75
2022/02/03 13:16:28;;;;;;;;;;;;;;;;;;5043086;28;20526;-74
2022/02/03 13:18:54;;;;;;;;;;;;;;;;;;5055137;28;19951;-74
2022/02/03 13:24:16;;;;;;;;;;;;;;;;;;5083383;28;19955;-73
2022/02/03 13:26:42;;;;;;;;;;;;;;;;;;5086293;28;20556;-73
2022/02/03 13:29:13;;;;;;;;;;;;;;;;;;5087761;28;20005;-74
2022/02/03 13:32:01;;;;;;;;;;;;;;;;;;5079175;28;19956;-73
2022/02/03 13:34:37;;;;;;;;;;;;;;;;;;5076253;28;20613;-74
2022/02/03 13:37:16;;;;;;;;;;;;;;;;;;5084063;28;20560;-74
2022/02/03 13:39:42;;;;;;;;;;;;;;;;;;5057945;28;19985;-75
2022/02/03 13:42:10;;;;;;;;;;;;;;;;;;5079651;28;19917;-74
2022/02/03 13:44:36;;;;;;;;;;;;;;;;;;5060375;28;19952;-74
2022/02/03 13:47:02;;;;;;;;;;;;;;;;;;5063779;28;20461;-74
2022/02/03 13:49:29;;;;;;;;;;;;;;;;;;5066049;28;19921;-74
2022/02/03 13:51:55;;;;;;;;;;;;;;;;;;5064477;28;19959;-74
2022/02/03 13:54:27;;;;;;;;;;;;;;;;;;5055199;28;19988;-74
2022/02/03 14:12:06;;;;;;;;;;;;;;;;;;5064717;28;20380;-74
2022/02/03 14:14:38;;;;;;;;;;;;;;;;;;5062439;28;21326;-74
2022/02/03 14:22:01;;;;;;;;;;;;;;;;;;5070384;28;20360;-74
2022/02/03 14:27:20;;;;;;;;;;;;;;;;;;5067171;28;19956;-75
2022/02/03 14:29:52;;;;;;;;;;;;;;;;;;5085116;28;19963;-73
2022/02/03 14:32:31;;;;;;;;;;;;;;;;;;5083606;28;20621;-74
2022/02/03 14:34:57;;;;;;;;;;;;;;;;;;5047976;28;19959;-74
2022/02/03 14:40:17;;;;;;;;;;;;;;;;;;5083812;28;20240;-75
2022/02/03 14:42:45;;;;;;;;;;;;;;;;;;5080307;28;20330;-75
2022/02/03 14:45:13;;;;;;;;;;;;;;;;;;5080632;28;19947;-74
2022/02/03 14:47:40;;;;;;;;;;;;;;;;;;5081363;28;19970;-75
2022/02/03 14:50:06;;;;;;;;;;;;;;;;;;5083825;28;19956;-74
2022/02/03 14:52:57;;;;;;;;;;;;;;;;;;5064978;28;19952;-75
2022/02/03 14:58:07;;;;;;;;;;;;;;;;;;5082481;28;20362;-74
2022/02/03 15:00:33;;;;;;;;;;;;;;;;;;5083270;28;19955;-75
2022/02/03 15:03:00;;;;;;;;;;;;;;;;;;5060856;28;19960;-74
2022/02/03 15:05:32;;;;;;;;;;;;;;;;;;5082186;28;19966;-74
2022/02/03 15:08:02;;;;;;;;;;;;;;;;;;5058569;28;19959;-75
2022/02/03 15:13:33;;;;;;;;;;;;;;;;;;5081463;28;20008;-75
2022/02/03 15:15:47;;;;;;;;;;;;;;;;;;5076934;28;20001;-75
2022/02/03 15:18:15;;;;;;;;;;;;;;;;;;5065230;28;19971;-75
2022/02/03 15:20:41;;;;;;;;;;;;;;;;;;5077681;28;20037;-75
2022/02/03 15:23:08;;;;;;;;;;;;;;;;;;5083765;28;19948;-75
2022/02/03 15:25:34;;;;;;;;;;;;;;;;;;5080725;28;19966;-75
2022/02/03 15:28:00;;;;;;;;;;;;;;;;;;5080169;28;20026;-76
2022/02/03 15:30:26;;;;;;;;;;;;;;;;;;5083988;28;19962;-75
2022/02/03 15:32:53;;;;;;;;;;;;;;;;;;5059890;28;20405;-75
2022/02/03 15:35:44;;;;;;;;;;;;;;;;;;5081679;28;20032;-75
2022/02/03 15:38:07;;;;;;;;;;;;;;;;;;5082543;28;20079;-75
2022/02/03 15:40:36;;;;;;;;;;;;;;;;;;5079177;28;19948;-76
2022/02/03 15:45:36;;;;;;;;;;;;;;;;;;5085203;28;20697;-75
2022/02/03 15:48:10;;;;;;;;;;;;;;;;;;5081981;28;19959;-76
2022/02/03 15:51:01;;;;;;;;;;;;;;;;;;5078944;28;20959;-75
2022/02/03 16:16:12;;;;;;;;;;;;;;;;;;5065061;28;20834;-74
2022/02/03 16:17:55;;;;;;;;;;;;;;;;;;5083666;28;20415;-76
2022/02/03 16:20:26;;;;;;;;;;;;;;;;;;5067772;28;19997;-77
2022/02/03 16:52:51;;;;;;;;;;;;;;;;;;5063772;28;19955;-78
2022/02/03 16:55:21;;;;;;;;;;;;;;;;;;5080610;28;19989;-76
2022/02/03 16:57:50;;;;;;;;;;;;;;;;;;5083396;28;20027;-76
2022/02/03 17:00:17;;;;;;;;;;;;;;;;;;5084381;28;19952;-76
2022/02/03 17:02:43;;;;;;;;;;;;;;;;;;5085672;28;20604;-76
2022/02/03 17:05:09;;;;;;;;;;;;;;;;;;5083311;28;19916;-76
2022/02/03 17:07:35;;;;;;;;;;;;;;;;;;5082825;28;20564;-76
2022/02/03 17:10:02;;;;;;;;;;;;;;;;;;5085737;28;19958;-77
2022/02/03 17:12:28;;;;;;;;;;;;;;;;;;5080987;28;19970;-77
2022/02/03 17:14:54;;;;;;;;;;;;;;;;;;5085153;28;19967;-76
2022/02/03 17:17:21;;;;;;;;;;;;;;;;;;5063295;28;19955;-76
2022/02/03 17:19:47;;;;;;;;;;;;;;;;;;5081505;28;19960;-75
2022/02/03 17:22:15;;;;;;;;;;;;;;;;;;5082637;28;19949;-76
2022/02/03 17:24:49;;;;;;;;;;;;;;;;;;5083824;28;20438;-77
2022/02/03 17:27:27;;;;;;;;;;;;;;;;;;5083957;28;19956;-77
2022/02/03 17:30:04;;;;;;;;;;;;;;;;;;5082516;28;20024;-76
2022/02/03 18:10:24;;;;;;;;;;;;;;;;;;5083777;28;19982;-74
2022/02/03 18:35:16;;;;;;;;;;;;;;;;;;5081397;28;21230;-76
2022/02/03 18:56:13;;;;;;;;;;;;;;;;;;5083695;28;19994;-76
2022/02/03 18:58:51;;;;;;;;;;;;;;;;;;5081001;28;19963;-78
2022/02/03 19:26:14;;;;;;;;;;;;;;;;;;5077712;28;20009;-80
2022/02/03 20:04:03;;;;;;;;;;;;;;;;;;5074873;28;19934;-82
2022/02/03 20:09:19;;;;;;;;;;;;;;;;;;5100191;28;19970;-83
2022/02/03 20:11:48;;;;;;;;;;;;;;;;;;5100280;28;20348;-84
2022/02/03 20:14:15;;;;;;;;;;;;;;;;;;5100197;28;19974;-79
2022/02/03 20:16:41;;;;;;;;;;;;;;;;;;5095683;28;19920;-80
2022/02/03 20:19:07;;;;;;;;;;;;;;;;;;5093944;28;19927;-82
2022/02/03 20:21:35;;;;;;;;;;;;;;;;;;5092171;28;19928;-81
2022/02/03 20:24:03;;;;;;;;;;;;;;;;;;5094641;28;19923;-81
2022/02/03 20:26:29;;;;;;;;;;;;;;;;;;5096291;28;19928;-81
2022/02/03 20:28:55;;;;;;;;;;;;;;;;;;5098778;28;19916;-82
2022/02/03 20:31:22;;;;;;;;;;;;;;;;;;5077458;28;19920;-82
2022/02/03 20:33:48;;;;;;;;;;;;;;;;;;5092321;28;20005;-75
2022/02/03 20:36:14;;;;;;;;;;;;;;;;;;5092009;28;20602;-76
2022/02/03 20:38:40;;;;;;;;;;;;;;;;;;5094176;28;19934;-77
2022/02/03 20:41:06;;;;;;;;;;;;;;;;;;5092260;28;19930;-76
2022/02/03 20:43:33;;;;;;;;;;;;;;;;;;5095078;28;19920;-76
2022/02/03 20:45:59;;;;;;;;;;;;;;;;;;5096530;28;19916;-75
2022/02/03 20:48:26;;;;;;;;;;;;;;;;;;5090488;28;19958;-77
2022/02/03 20:50:52;;;;;;;;;;;;;;;;;;5089634;28;21234;-77
2022/02/03 20:53:19;;;;;;;;;;;;;;;;;;5085032;28;19948;-77
2022/02/03 20:55:45;;;;;;;;;;;;;;;;;;5081509;28;19971;-75
2022/02/03 20:58:15;;;;;;;;;;;;;;;;;;5088305;28;19955;-76
2022/02/03 21:00:46;;;;;;;;;;;;;;;;;;5083419;28;20491;-75
2022/02/03 21:06:14;;;;;;;;;;;;;;;;;;5004268;28;21292;-76
2022/02/03 21:08:42;;;;;;;;;;;;;;;;;;5068324;28;19963;-76
2022/02/03 21:11:08;;;;;;;;;;;;;;;;;;5069935;28;19959;-75
2022/02/03 21:13:35;;;;;;;;;;;;;;;;;;5085500;28;20040;-75
2022/02/03 21:16:02;;;;;;;;;;;;;;;;;;5062645;28;20045;-75
2022/02/03 21:18:35;;;;;;;;;;;;;;;;;;5068336;28;20411;-76
2022/02/03 21:21:02;;;;;;;;;;;;;;;;;;5082880;28;19963;-75
2022/02/03 21:23:28;;;;;;;;;;;;;;;;;;5085674;28;19951;-75
2022/02/03 21:25:56;;;;;;;;;;;;;;;;;;5087300;28;19969;-75
2022/02/03 21:28:26;;;;;;;;;;;;;;;;;;5084729;28;19948;-75
2022/02/03 21:30:52;;;;;;;;;;;;;;;;;;5084965;28;19985;-74
2022/02/03 21:33:23;;;;;;;;;;;;;;;;;;5085728;28;20008;-75
2022/02/03 21:35:50;;;;;;;;;;;;;;;;;;5085890;28;21781;-75
2022/02/03 21:38:16;;;;;;;;;;;;;;;;;;5088104;28;19957;-73
2022/02/03 21:40:42;;;;;;;;;;;;;;;;;;5086620;28;20347;-73
2022/02/03 21:43:08;;;;;;;;;;;;;;;;;;5087805;28;19959;-75
2022/02/03 21:45:35;;;;;;;;;;;;;;;;;;5089022;28;20445;-75
2022/02/03 21:48:01;;;;;;;;;;;;;;;;;;5081594;28;19959;-76
2022/02/03 21:50:32;;;;;;;;;;;;;;;;;;5083726;28;20054;-76
2022/02/03 21:52:59;;;;;;;;;;;;;;;;;;5084720;28;19952;-76
2022/02/03 21:55:28;;;;;;;;;;;;;;;;;;5061066;28;19978;-78
2022/02/03 21:57:56;;;;;;;;;;;;;;;;;;5064110;28;19960;-78
2022/02/03 22:00:22;;;;;;;;;;;;;;;;;;5082727;28;19959;-77
2022/02/03 22:02:48;;;;;;;;;;;;;;;;;;5086350;28;19952;-77
2022/02/03 22:05:14;;;;;;;;;;;;;;;;;;5084201;28;20532;-78
2022/02/03 22:07:41;;;;;;;;;;;;;;;;;;5086667;28;19958;-75
2022/02/03 22:10:07;;;;;;;;;;;;;;;;;;5085638;28;19952;-75
2022/02/03 22:12:33;;;;;;;;;;;;;;;;;;5082481;28;20021;-76
2022/02/03 22:15:00;;;;;;;;;;;;;;;;;;5067849;28;20012;-77
2022/02/03 22:17:26;;;;;;;;;;;;;;;;;;5082836;28;19936;-76
2022/02/03 22:19:54;;;;;;;;;;;;;;;;;;5065803;28;19935;-77
2022/02/03 22:46:23;;;;;;;;;;;;;;;;;;5083703;28;19955;-75
2022/02/03 22:48:49;;;;;;;;;;;;;;;;;;5083169;28;20021;-75
2022/02/03 22:51:15;;;;;;;;;;;;;;;;;;5082715;28;19966;-74
2022/02/03 22:53:42;;;;;;;;;;;;;;;;;;5083588;28;20004;-74
2022/02/03 22:56:08;;;;;;;;;;;;;;;;;;5080194;28;19978;-74
2022/02/03 23:01:01;;;;;;;;;;;;;;;;;;5082055;28;19955;-74
2022/02/03 23:03:27;;;;;;;;;;;;;;;;;;5065541;28;20645;-75
2022/02/03 23:05:53;;;;;;;;;;;;;;;;;;5080994;28;20261;-74
2022/02/03 23:08:27;;;;;;;;;;;;;;;;;;5081358;28;19963;-75
2022/02/03 23:16:20;;;;;;;;;;;;;;;;;;5077814;28;19964;-74
2022/02/03 23:23:54;;;;;;;;;;;;;;;;;;5078277;28;19974;-75
2022/02/03 23:26:23;;;;;;;;;;;;;;;;;;5082211;28;19952;-75
2022/02/03 23:28:51;;;;;;;;;;;;;;;;;;5082252;28;19948;-74
2022/02/03 23:31:19;;;;;;;;;;;;;;;;;;5082977;28;19940;-75
2022/02/03 23:33:45;;;;;;;;;;;;;;;;;;5087594;28;20012;-75
2022/02/03 23:36:11;;;;;;;;;;;;;;;;;;5062636;28;19928;-74
